Valle Di Andalusia — IBTJ — position and weather

sailwx.info

Track history (hours):
 
Tides and Currents Weather Stations Pressure Air Temp Water Temp Dewpoint Dewpoint Depression Visibility Wind Speed Wind Dir Waves Ship Positions

Valle Di Andalusia

Last reported at 2015-Aug-31 06:07 UTC. Time now 2015-Aug-31 23:54 UTC.
Position N 37°47' E 016°06'.

Length 176 m; draft 9 m.

Type: Ship (hazmat cat A). MMSI: 247046200.

Date/timePositionNaut miles runAvg speedWind from/ knotsBaromVisibWave heightAir tempDewpointWater temp
2015-Aug-31 06:07N 37°47' E 016°06'712.4
2015-Aug-31 05:32N 37°41' E 016°02'1312.1
2015-Aug-31 04:29N 37°30' E 015°54'1112.4
2015-Aug-31 03:33N 37°20' E 015°47'1512.4
2015-Aug-31 02:22N 37°07' E 015°37'1112.2
2015-Aug-31 01:28N 36°57' E 015°31'1212.0
2015-Aug-31 00:28N 36°47' E 015°23'1111.9
2015-Aug-30 23:33N 36°37' E 015°17'5711.3
2015-Aug-30 18:32N 36°50' E 014°08'1212.4
2015-Aug-30 17:33N 36°56' E 013°54'1212.2
2015-Aug-30 16:33N 37°01' E 013°40'1212.2
2015-Aug-30 15:33N 37°07' E 013°27'1312.4
2015-Aug-30 14:33N 37°13' E 013°13'1212.4
2015-Aug-30 13:33N 37°18' E 012°59'1612.3
2015-Aug-30 12:17N 37°25' E 012°41'912.2
2015-Aug-30 11:33N 37°29' E 012°32'1212.6
2015-Aug-30 10:34N 37°37' E 012°19'1312.8
2015-Aug-30 09:33N 37°45' E 012°07'1312.6
2015-Aug-30 08:33N 37°52' E 011°54'1512.7
2015-Aug-30 07:23N 37°60' E 011°37'2312.6
2015-Aug-30 05:33N 38°11' E 011°12'1312.9
2015-Aug-30 04:33N 38°17' E 010°57'1312.7
2015-Aug-30 03:33N 38°23' E 010°43'1312.6
2015-Aug-30 02:33N 38°30' E 010°29'1212.2
2015-Aug-30 01:34N 38°35' E 010°15'1212.1
2015-Aug-30 00:33N 38°41' E 010°02'2912.0
2015-Aug-29 22:08N 38°55' E 009°29'811.8
2015-Aug-29 21:29N 38°59' E 009°20'1111.9
2015-Aug-29 20:33N 39°04' E 009°08'5 4.4
2015-Aug-29 19:31N 39°05' E 009°02'0 0.0
2015-Aug-29 18:31N 39°05' E 009°02'0 0.0
2015-Aug-29 17:33N 39°05' E 009°02'0 0.0
2015-Aug-29 16:33N 39°05' E 009°02'0 0.0
2015-Aug-29 15:32N 39°05' E 009°02'0 0.0
2015-Aug-29 14:32N 39°05' E 009°02'0 0.0
2015-Aug-29 13:31N 39°05' E 009°02'0 0.0
2015-Aug-29 12:31N 39°05' E 009°02'0 0.0
2015-Aug-29 11:34N 39°05' E 009°02'0 0.0
2015-Aug-29 10:33N 39°05' E 009°02'0 0.0
2015-Aug-29 09:33N 39°05' E 009°02'0 0.0
2015-Aug-29 08:33N 39°05' E 009°02'0 0.0
2015-Aug-29 07:32N 39°05' E 009°02'0 0.0
2015-Aug-29 06:32N 39°05' E 009°02'0 0.0
2015-Aug-29 05:31N 39°05' E 009°02'0 0.0
2015-Aug-29 04:31N 39°05' E 009°02'0 0.0
2015-Aug-29 03:33N 39°05' E 009°02'0 0.0
2015-Aug-29 02:33N 39°05' E 009°02'0 0.0
2015-Aug-29 01:33N 39°05' E 009°02'0 0.0
2015-Aug-29 00:32N 39°05' E 009°02'0 0.0
2015-Aug-28 23:32N 39°05' E 009°02'0 0.0
2015-Aug-28 22:31N 39°05' E 009°02'0 0.0
2015-Aug-28 21:31N 39°05' E 009°02'0 0.0
2015-Aug-28 20:33N 39°05' E 009°02'0 0.0
2015-Aug-28 19:33N 39°05' E 009°02'0 0.0
2015-Aug-28 18:33N 39°05' E 009°02'4 4.4
2015-Aug-28 17:34N 39°03' E 009°07'1212.0
2015-Aug-28 16:33N 38°52' E 008°59'12911.7
2015-Aug-28 05:32N 40°07' E 006°44'4012.4
2015-Aug-28 02:17N 40°37' E 006°08'11412.6
2015-Aug-27 17:17N 42°01' E 004°25'2312.6
2015-Aug-27 15:28N 42°17' E 004°04'61 2.7
2015-Aug-26 16:23N 43°01' E 003°05'0 0.0
2015-Aug-26 15:32N 43°01' E 003°05'0 0.0
2015-Aug-26 14:28N 43°01' E 003°05'0 0.0
2015-Aug-26 09:26N 43°01' E 003°05'0 0.0
2015-Aug-26 08:20N 43°01' E 003°05'0 0.0
2015-Aug-26 07:32N 43°01' E 003°05'0 0.0
2015-Aug-25 23:14N 43°01' E 003°05'0 0.0
2015-Aug-25 22:05N 43°01' E 003°05'0 0.0
2015-Aug-25 21:17N 43°01' E 003°05'0 0.0
2015-Aug-25 20:31N 43°01' E 003°05'0 0.0
2015-Aug-25 19:22N 43°01' E 003°05'0 0.0
2015-Aug-25 18:24N 43°01' E 003°05'360 8.7
2015-Aug-24 01:05N 38°45' E 008°40'712.9
2015-Aug-24 00:33N 38°45' E 008°49'1211.9
2015-Aug-23 23:33N 38°51' E 009°02'1211.7
2015-Aug-23 22:32N 39°03' E 009°07'5 4.8
2015-Aug-23 21:33N 39°06' E 009°03'1 0.7
2015-Aug-23 20:33N 39°05' E 009°02'0 0.0
2015-Aug-23 19:33N 39°05' E 009°02'0 0.0
2015-Aug-23 18:32N 39°05' E 009°02'0 0.0
2015-Aug-23 17:32N 39°05' E 009°02'0 0.0
2015-Aug-23 16:28N 39°05' E 009°02'0 0.0
2015-Aug-23 15:31N 39°05' E 009°02'0 0.0
2015-Aug-23 14:33N 39°05' E 009°02'0 0.0
2015-Aug-23 13:33N 39°05' E 009°02'0 0.0
2015-Aug-23 12:32N 39°05' E 009°02'0 0.0
2015-Aug-23 11:32N 39°05' E 009°02'0 0.0
2015-Aug-23 10:32N 39°05' E 009°02'0 0.0
2015-Aug-23 09:25N 39°05' E 009°02'0 0.0
2015-Aug-23 08:31N 39°05' E 009°02'0 0.0
2015-Aug-23 07:33N 39°05' E 009°02'0 0.0
2015-Aug-23 06:33N 39°05' E 009°02'0 0.0
2015-Aug-23 05:32N 39°05' E 009°02'0 0.0
2015-Aug-23 04:29N 39°05' E 009°02'0 0.0
2015-Aug-23 03:32N 39°05' E 009°02'0 0.0
2015-Aug-23 02:31N 39°05' E 009°02'0 0.0
2015-Aug-23 01:31N 39°05' E 009°02'0 0.0
2015-Aug-23 00:33N 39°05' E 009°02'1 1.2
2015-Aug-22 23:34N 39°04' E 009°03'0 0.1
2015-Aug-22 22:33N 39°05' E 009°03'0 0.0
2015-Aug-22 21:33N 39°04' E 009°03'0 0.0
2015-Aug-22 20:32N 39°05' E 009°03'0 0.0
2015-Aug-22 19:32N 39°04' E 009°03'0 0.0
2015-Aug-22 18:31N 39°05' E 009°03'0 0.0
2015-Aug-22 17:31N 39°05' E 009°03'0 0.0
2015-Aug-22 16:33N 39°05' E 009°03'0 0.0
2015-Aug-22 15:31N 39°05' E 009°03'0 0.0
2015-Aug-22 14:33N 39°05' E 009°03'1 1.1
2015-Aug-22 13:34N 39°04' E 009°04'1010.0
2015-Aug-22 12:33N 38°53' E 009°04'1211.9
2015-Aug-22 11:33N 38°45' E 008°54'1612.0
2015-Aug-22 10:15N 38°46' E 008°34'2112.3
2015-Aug-22 08:30N 38°47' E 008°06'14612.2
2015-Aug-21 20:33N 38°56' E 004°59'2612.4
2015-Aug-21 18:29N 38°57' E 004°26'1112.3
2015-Aug-21 17:33N 38°58' E 004°11'1212.3
2015-Aug-21 16:32N 38°59' E 003°55'1212.3
2015-Aug-21 15:31N 38°60' E 003°39'1212.4
2015-Aug-21 14:33N 39°01' E 003°24'1212.3
2015-Aug-21 13:33N 39°01' E 003°08'1212.1
2015-Aug-21 12:33N 39°03' E 002°53'1212.2
2015-Aug-21 11:33N 39°09' E 002°39'1212.2
2015-Aug-21 10:33N 39°16' E 002°26'1312.7
2015-Aug-21 09:33N 39°22' E 002°12'1212.4
2015-Aug-21 08:33N 39°26' E 001°56'1212.1
2015-Aug-21 07:33N 39°30' E 001°41'1212.2
2015-Aug-21 06:33N 39°33' E 001°26'  
Track history (hours):
 
Tides and Currents Weather Stations Pressure Air Temp Water Temp Dewpoint Dewpoint Depression Visibility Wind Speed Wind Dir Waves Ship Positions

Valle Di Andalusia

Last reported at 2015-Aug-31 06:07 UTC. Time now 2015-Aug-31 23:54 UTC.
Position N 37°47' E 016°06'.

Length 176 m; draft 9 m.

Type: Ship (hazmat cat A). MMSI: 247046200.

Date/timePositionNaut miles runAvg speedWind from/ knotsBaromVisibWave heightAir tempDewpointWater temp
2015-Aug-31 06:07N 37°47' E 016°06'712.4
2015-Aug-31 05:32N 37°41' E 016°02'1312.1
2015-Aug-31 04:29N 37°30' E 015°54'1112.4
2015-Aug-31 03:33N 37°20' E 015°47'1512.4
2015-Aug-31 02:22N 37°07' E 015°37'1112.2
2015-Aug-31 01:28N 36°57' E 015°31'1212.0
2015-Aug-31 00:28N 36°47' E 015°23'1111.9
2015-Aug-30 23:33N 36°37' E 015°17'5711.3
2015-Aug-30 18:32N 36°50' E 014°08'1212.4
2015-Aug-30 17:33N 36°56' E 013°54'1212.2
2015-Aug-30 16:33N 37°01' E 013°40'1212.2
2015-Aug-30 15:33N 37°07' E 013°27'1312.4
2015-Aug-30 14:33N 37°13' E 013°13'1212.4
2015-Aug-30 13:33N 37°18' E 012°59'1612.3
2015-Aug-30 12:17N 37°25' E 012°41'912.2
2015-Aug-30 11:33N 37°29' E 012°32'1212.6
2015-Aug-30 10:34N 37°37' E 012°19'1312.8
2015-Aug-30 09:33N 37°45' E 012°07'1312.6
2015-Aug-30 08:33N 37°52' E 011°54'1512.7
2015-Aug-30 07:23N 37°60' E 011°37'2312.6
2015-Aug-30 05:33N 38°11' E 011°12'1312.9
2015-Aug-30 04:33N 38°17' E 010°57'1312.7
2015-Aug-30 03:33N 38°23' E 010°43'1312.6
2015-Aug-30 02:33N 38°30' E 010°29'1212.2
2015-Aug-30 01:34N 38°35' E 010°15'1212.1
2015-Aug-30 00:33N 38°41' E 010°02'2912.0
2015-Aug-29 22:08N 38°55' E 009°29'811.8
2015-Aug-29 21:29N 38°59' E 009°20'1111.9
2015-Aug-29 20:33N 39°04' E 009°08'5 4.4
2015-Aug-29 19:31N 39°05' E 009°02'0 0.0
2015-Aug-29 18:31N 39°05' E 009°02'0 0.0
2015-Aug-29 17:33N 39°05' E 009°02'0 0.0
2015-Aug-29 16:33N 39°05' E 009°02'0 0.0
2015-Aug-29 15:32N 39°05' E 009°02'0 0.0
2015-Aug-29 14:32N 39°05' E 009°02'0 0.0
2015-Aug-29 13:31N 39°05' E 009°02'0 0.0
2015-Aug-29 12:31N 39°05' E 009°02'0 0.0
2015-Aug-29 11:34N 39°05' E 009°02'0 0.0
2015-Aug-29 10:33N 39°05' E 009°02'0 0.0
2015-Aug-29 09:33N 39°05' E 009°02'0 0.0
2015-Aug-29 08:33N 39°05' E 009°02'0 0.0
2015-Aug-29 07:32N 39°05' E 009°02'0 0.0
2015-Aug-29 06:32N 39°05' E 009°02'0 0.0
2015-Aug-29 05:31N 39°05' E 009°02'0 0.0
2015-Aug-29 04:31N 39°05' E 009°02'0 0.0
2015-Aug-29 03:33N 39°05' E 009°02'0 0.0
2015-Aug-29 02:33N 39°05' E 009°02'0 0.0
2015-Aug-29 01:33N 39°05' E 009°02'0 0.0
2015-Aug-29 00:32N 39°05' E 009°02'0 0.0
2015-Aug-28 23:32N 39°05' E 009°02'0 0.0
2015-Aug-28 22:31N 39°05' E 009°02'0 0.0
2015-Aug-28 21:31N 39°05' E 009°02'0 0.0
2015-Aug-28 20:33N 39°05' E 009°02'0 0.0
2015-Aug-28 19:33N 39°05' E 009°02'0 0.0
2015-Aug-28 18:33N 39°05' E 009°02'4 4.4
2015-Aug-28 17:34N 39°03' E 009°07'1212.0
2015-Aug-28 16:33N 38°52' E 008°59'12911.7
2015-Aug-28 05:32N 40°07' E 006°44'4012.4
2015-Aug-28 02:17N 40°37' E 006°08'11412.6
2015-Aug-27 17:17N 42°01' E 004°25'2312.6
2015-Aug-27 15:28N 42°17' E 004°04'61 2.7
2015-Aug-26 16:23N 43°01' E 003°05'0 0.0
2015-Aug-26 15:32N 43°01' E 003°05'0 0.0
2015-Aug-26 14:28N 43°01' E 003°05'0 0.0
2015-Aug-26 09:26N 43°01' E 003°05'0 0.0
2015-Aug-26 08:20N 43°01' E 003°05'0 0.0
2015-Aug-26 07:32N 43°01' E 003°05'0 0.0
2015-Aug-25 23:14N 43°01' E 003°05'0 0.0
2015-Aug-25 22:05N 43°01' E 003°05'0 0.0
2015-Aug-25 21:17N 43°01' E 003°05'0 0.0
2015-Aug-25 20:31N 43°01' E 003°05'0 0.0
2015-Aug-25 19:22N 43°01' E 003°05'0 0.0
2015-Aug-25 18:24N 43°01' E 003°05'360 8.7
2015-Aug-24 01:05N 38°45' E 008°40'712.9
2015-Aug-24 00:33N 38°45' E 008°49'1211.9
2015-Aug-23 23:33N 38°51' E 009°02'1211.7
2015-Aug-23 22:32N 39°03' E 009°07'5 4.8
2015-Aug-23 21:33N 39°06' E 009°03'1 0.7
2015-Aug-23 20:33N 39°05' E 009°02'0 0.0
2015-Aug-23 19:33N 39°05' E 009°02'0 0.0
2015-Aug-23 18:32N 39°05' E 009°02'0 0.0
2015-Aug-23 17:32N 39°05' E 009°02'0 0.0
2015-Aug-23 16:28N 39°05' E 009°02'0 0.0
2015-Aug-23 15:31N 39°05' E 009°02'0 0.0
2015-Aug-23 14:33N 39°05' E 009°02'0 0.0
2015-Aug-23 13:33N 39°05' E 009°02'0 0.0
2015-Aug-23 12:32N 39°05' E 009°02'0 0.0
2015-Aug-23 11:32N 39°05' E 009°02'0 0.0
2015-Aug-23 10:32N 39°05' E 009°02'0 0.0
2015-Aug-23 09:25N 39°05' E 009°02'0 0.0
2015-Aug-23 08:31N 39°05' E 009°02'0 0.0
2015-Aug-23 07:33N 39°05' E 009°02'0 0.0
2015-Aug-23 06:33N 39°05' E 009°02'0 0.0
2015-Aug-23 05:32N 39°05' E 009°02'0 0.0
2015-Aug-23 04:29N 39°05' E 009°02'0 0.0
2015-Aug-23 03:32N 39°05' E 009°02'0 0.0
2015-Aug-23 02:31N 39°05' E 009°02'0 0.0
2015-Aug-23 01:31N 39°05' E 009°02'0 0.0
2015-Aug-23 00:33N 39°05' E 009°02'1 1.2
2015-Aug-22 23:34N 39°04' E 009°03'0 0.1
2015-Aug-22 22:33N 39°05' E 009°03'0 0.0
2015-Aug-22 21:33N 39°04' E 009°03'0 0.0
2015-Aug-22 20:32N 39°05' E 009°03'0 0.0
2015-Aug-22 19:32N 39°04' E 009°03'0 0.0
2015-Aug-22 18:31N 39°05' E 009°03'0 0.0
2015-Aug-22 17:31N 39°05' E 009°03'0 0.0
2015-Aug-22 16:33N 39°05' E 009°03'0 0.0
2015-Aug-22 15:31N 39°05' E 009°03'0 0.0
2015-Aug-22 14:33N 39°05' E 009°03'1 1.1
2015-Aug-22 13:34N 39°04' E 009°04'1010.0
2015-Aug-22 12:33N 38°53' E 009°04'1211.9
2015-Aug-22 11:33N 38°45' E 008°54'1612.0
2015-Aug-22 10:15N 38°46' E 008°34'2112.3
2015-Aug-22 08:30N 38°47' E 008°06'14612.2
2015-Aug-21 20:33N 38°56' E 004°59'2612.4
2015-Aug-21 18:29N 38°57' E 004°26'1112.3
2015-Aug-21 17:33N 38°58' E 004°11'1212.3
2015-Aug-21 16:32N 38°59' E 003°55'1212.3
2015-Aug-21 15:31N 38°60' E 003°39'1212.4
2015-Aug-21 14:33N 39°01' E 003°24'1212.3
2015-Aug-21 13:33N 39°01' E 003°08'1212.1
2015-Aug-21 12:33N 39°03' E 002°53'1212.2
2015-Aug-21 11:33N 39°09' E 002°39'1212.2
2015-Aug-21 10:33N 39°16' E 002°26'1312.7
2015-Aug-21 09:33N 39°22' E 002°12'1212.4
2015-Aug-21 08:33N 39°26' E 001°56'1212.1
2015-Aug-21 07:33N 39°30' E 001°41'1212.2
2015-Aug-21 06:33N 39°33' E 001°26'  

Dump ship's entire track history